Ryong Bong 1 — 3FUW2 — position and weather

sailwx.info

Track history (hours):
 
Tides and Currents Weather Stations Pressure Air Temp Water Temp Dewpoint Dewpoint Depression Visibility Wind Speed Wind Dir Waves Ship Positions

Ryong Bong 1

Last reported at 2018-Feb-18 10:06 UTC. Time now 2018-Feb-19 00:21 UTC.
Position N 34°22' E 130°11'.

Length 97 m; draft 6.1 m.

Type: Cargo ship. MMSI: 354185000.

Date/timePositionNaut miles runAvg speedWind from/ knotsBaromVisibWave heightAir tempDewpointWater temp
2018-Feb-18 10:06N 34°22' E 130°11'2 8.8
2018-Feb-18 09:52N 34°21' E 130°13'3 8.6
2018-Feb-18 09:29N 34°19' E 130°16'4 8.3
2018-Feb-18 09:00N 34°17' E 130°20'4 8.3
2018-Feb-18 08:30N 34°15' E 130°25'4 8.3
2018-Feb-18 08:00N 34°13' E 130°29'4 8.3
2018-Feb-18 07:30N 34°11' E 130°33'4 8.3
2018-Feb-18 07:00N 34°09' E 130°37'4 8.4
2018-Feb-18 06:30N 34°06' E 130°41'4 8.6
2018-Feb-18 06:00N 34°04' E 130°46'4 8.7
2018-Feb-18 05:30N 34°01' E 130°50'4 7.8
2018-Feb-18 05:00N 33°58' E 130°53'4 7.7
2018-Feb-18 04:30N 33°55' E 130°54'510.2
2018-Feb-18 04:00N 33°58' E 130°58'4 8.2
2018-Feb-18 03:30N 33°57' E 131°03'5 9.1
2018-Feb-18 03:00N 33°54' E 131°08'4 8.8
2018-Feb-18 02:30N 33°52' E 131°12'5 9.1
2018-Feb-18 02:00N 33°51' E 131°18'5 9.1
2018-Feb-18 01:30N 33°50' E 131°23'5 9.4
2018-Feb-18 01:00N 33°49' E 131°28'5 9.4
2018-Feb-18 00:30N 33°48' E 131°34'5 9.7
2018-Feb-17 23:58N 33°47' E 131°40'5 9.8
2018-Feb-17 23:29N 33°46' E 131°46'136 7.3
2018-Feb-17 04:59N 34°25' E 134°23'4 8.4
2018-Feb-17 04:28N 34°27' E 134°28'4 8.2
2018-Feb-17 04:00N 34°28' E 134°32'4 8.1
2018-Feb-17 03:30N 34°30' E 134°36'4 8.0
2018-Feb-17 03:00N 34°31' E 134°41'4 8.5
2018-Feb-17 02:30N 34°33' E 134°46'5 9.1
2018-Feb-17 02:00N 34°35' E 134°51'5 9.5
2018-Feb-17 01:30N 34°36' E 134°56'4 9.0
2018-Feb-17 01:00N 34°37' E 135°02'4 9.0
2018-Feb-17 00:30N 34°34' E 135°05'5 9.3
2018-Feb-17 00:01N 34°29' E 135°05'5 9.5
2018-Feb-16 23:31N 34°25' E 135°03'5 9.5
2018-Feb-16 23:00N 34°20' E 135°01'510.0
2018-Feb-16 22:30N 34°16' E 134°59'4 8.8
2018-Feb-16 22:00N 34°11' E 134°59'4 8.5
2018-Feb-16 21:31N 34°07' E 134°59'4 8.0
2018-Feb-16 21:00N 34°03' E 134°59'4 8.4
2018-Feb-16 20:30N 33°59' E 134°59'4 8.4
2018-Feb-16 19:58N 33°54' E 134°59'11 0.8
2018-Feb-16 06:56N 33°44' E 134°58'6 8.3
2018-Feb-16 06:13N 33°49' E 134°59'2 7.5
2018-Feb-16 05:59N 33°49' E 135°01'198 6.9
2018-Feb-15 01:14N 34°35' E 138°53'2 4.8
2018-Feb-15 00:54N 34°36' E 138°55'7 5.0
2018-Feb-14 23:27N 34°41' E 139°02'3 6.7
2018-Feb-14 23:00N 34°43' E 139°04'20 6.0
2018-Feb-14 19:41N 34°59' E 139°18'1 5.1
2018-Feb-14 19:28N 34°60' E 139°19'2 4.2
2018-Feb-14 19:00N 35°01' E 139°22'2 3.6
2018-Feb-14 18:29N 35°01' E 139°24'2 3.2
2018-Feb-14 17:59N 35°02' E 139°25'2 3.1
2018-Feb-14 17:28N 35°03' E 139°27'1 3.0
2018-Feb-14 16:59N 35°04' E 139°29'1 2.7
2018-Feb-14 16:27N 35°04' E 139°30'2 2.3
2018-Feb-14 15:40N 35°04' E 139°33'5 3.1
2018-Feb-14 14:13N 35°06' E 139°38'1 4.2
2018-Feb-14 13:55N 35°06' E 139°39'3 4.8
2018-Feb-14 13:24N 35°07' E 139°42'2 5.5
2018-Feb-14 12:57N 35°09' E 139°44'3 6.5
2018-Feb-14 12:30N 35°11' E 139°46'4 7.4
2018-Feb-14 12:00N 35°15' E 139°47'5 9.5
2018-Feb-14 11:30N 35°19' E 139°43'4 8.7
2018-Feb-14 11:00N 35°23' E 139°42'4 8.1
2018-Feb-14 10:30N 35°26' E 139°46'4 7.6
2018-Feb-14 10:00N 35°29' E 139°49'4 8.0
2018-Feb-14 09:30N 35°31' E 139°53'7 7.5
2018-Feb-14 08:33N 35°36' E 139°59'0 8.0
2018-Feb-14 08:30N 35°37' E 139°59'  
Track history (hours):
 
Tides and Currents Weather Stations Pressure Air Temp Water Temp Dewpoint Dewpoint Depression Visibility Wind Speed Wind Dir Waves Ship Positions

Ryong Bong 1

Last reported at 2018-Feb-18 10:06 UTC. Time now 2018-Feb-19 00:21 UTC.
Position N 34°22' E 130°11'.

Length 97 m; draft 6.1 m.

Type: Cargo ship. MMSI: 354185000.

Date/timePositionNaut miles runAvg speedWind from/ knotsBaromVisibWave heightAir tempDewpointWater temp
2018-Feb-18 10:06N 34°22' E 130°11'2 8.8
2018-Feb-18 09:52N 34°21' E 130°13'3 8.6
2018-Feb-18 09:29N 34°19' E 130°16'4 8.3
2018-Feb-18 09:00N 34°17' E 130°20'4 8.3
2018-Feb-18 08:30N 34°15' E 130°25'4 8.3
2018-Feb-18 08:00N 34°13' E 130°29'4 8.3
2018-Feb-18 07:30N 34°11' E 130°33'4 8.3
2018-Feb-18 07:00N 34°09' E 130°37'4 8.4
2018-Feb-18 06:30N 34°06' E 130°41'4 8.6
2018-Feb-18 06:00N 34°04' E 130°46'4 8.7
2018-Feb-18 05:30N 34°01' E 130°50'4 7.8
2018-Feb-18 05:00N 33°58' E 130°53'4 7.7
2018-Feb-18 04:30N 33°55' E 130°54'510.2
2018-Feb-18 04:00N 33°58' E 130°58'4 8.2
2018-Feb-18 03:30N 33°57' E 131°03'5 9.1
2018-Feb-18 03:00N 33°54' E 131°08'4 8.8
2018-Feb-18 02:30N 33°52' E 131°12'5 9.1
2018-Feb-18 02:00N 33°51' E 131°18'5 9.1
2018-Feb-18 01:30N 33°50' E 131°23'5 9.4
2018-Feb-18 01:00N 33°49' E 131°28'5 9.4
2018-Feb-18 00:30N 33°48' E 131°34'5 9.7
2018-Feb-17 23:58N 33°47' E 131°40'5 9.8
2018-Feb-17 23:29N 33°46' E 131°46'136 7.3
2018-Feb-17 04:59N 34°25' E 134°23'4 8.4
2018-Feb-17 04:28N 34°27' E 134°28'4 8.2
2018-Feb-17 04:00N 34°28' E 134°32'4 8.1
2018-Feb-17 03:30N 34°30' E 134°36'4 8.0
2018-Feb-17 03:00N 34°31' E 134°41'4 8.5
2018-Feb-17 02:30N 34°33' E 134°46'5 9.1
2018-Feb-17 02:00N 34°35' E 134°51'5 9.5
2018-Feb-17 01:30N 34°36' E 134°56'4 9.0
2018-Feb-17 01:00N 34°37' E 135°02'4 9.0
2018-Feb-17 00:30N 34°34' E 135°05'5 9.3
2018-Feb-17 00:01N 34°29' E 135°05'5 9.5
2018-Feb-16 23:31N 34°25' E 135°03'5 9.5
2018-Feb-16 23:00N 34°20' E 135°01'510.0
2018-Feb-16 22:30N 34°16' E 134°59'4 8.8
2018-Feb-16 22:00N 34°11' E 134°59'4 8.5
2018-Feb-16 21:31N 34°07' E 134°59'4 8.0
2018-Feb-16 21:00N 34°03' E 134°59'4 8.4
2018-Feb-16 20:30N 33°59' E 134°59'4 8.4
2018-Feb-16 19:58N 33°54' E 134°59'11 0.8
2018-Feb-16 06:56N 33°44' E 134°58'6 8.3
2018-Feb-16 06:13N 33°49' E 134°59'2 7.5
2018-Feb-16 05:59N 33°49' E 135°01'198 6.9
2018-Feb-15 01:14N 34°35' E 138°53'2 4.8
2018-Feb-15 00:54N 34°36' E 138°55'7 5.0
2018-Feb-14 23:27N 34°41' E 139°02'3 6.7
2018-Feb-14 23:00N 34°43' E 139°04'20 6.0
2018-Feb-14 19:41N 34°59' E 139°18'1 5.1
2018-Feb-14 19:28N 34°60' E 139°19'2 4.2
2018-Feb-14 19:00N 35°01' E 139°22'2 3.6
2018-Feb-14 18:29N 35°01' E 139°24'2 3.2
2018-Feb-14 17:59N 35°02' E 139°25'2 3.1
2018-Feb-14 17:28N 35°03' E 139°27'1 3.0
2018-Feb-14 16:59N 35°04' E 139°29'1 2.7
2018-Feb-14 16:27N 35°04' E 139°30'2 2.3
2018-Feb-14 15:40N 35°04' E 139°33'5 3.1
2018-Feb-14 14:13N 35°06' E 139°38'1 4.2
2018-Feb-14 13:55N 35°06' E 139°39'3 4.8
2018-Feb-14 13:24N 35°07' E 139°42'2 5.5
2018-Feb-14 12:57N 35°09' E 139°44'3 6.5
2018-Feb-14 12:30N 35°11' E 139°46'4 7.4
2018-Feb-14 12:00N 35°15' E 139°47'5 9.5
2018-Feb-14 11:30N 35°19' E 139°43'4 8.7
2018-Feb-14 11:00N 35°23' E 139°42'4 8.1
2018-Feb-14 10:30N 35°26' E 139°46'4 7.6
2018-Feb-14 10:00N 35°29' E 139°49'4 8.0
2018-Feb-14 09:30N 35°31' E 139°53'7 7.5
2018-Feb-14 08:33N 35°36' E 139°59'0 8.0
2018-Feb-14 08:30N 35°37' E 139°59'  

Dump ship's entire track history